NOAA Web Site Link Tides and Currents Home Page Transparent placeholder image

PORTS® Data Listing: 8454049 Quonset Point, RI

CO-OPS RAW PORTS DATA

************************      PRELIMINARY DATA      ************************** 

     THIS RAW DATA HAS NOT BEEN SUBJECT TO THE NATIONAL OCEAN SERVICE'S        
     QUALITY CONTROL OR QUALITY ASSURANCE PROCEDURES AND DOES NOT MEET         
     THE CRITERIA AND STANDARDS OF OFFICIAL NATIONAL OCEAN SERVICE             
     DATA.  IT IS RELEASED FOR LIMITED PUBLIC USE AS PRELIMINARY DATA TO       
     BE USED ONLY WITH APPROPRIATE CAUTION.                                    

************************      PRELIMINARY DATA      ************************** 


       CD   -   Calendar date
       T    -   Time
       TZ   -   Timezone
       PW   -   Predicted water level (feet above MLLW)
       OW   -   Observed water level (feet above MLLW)
       WS   -   Wind speed (knots)
       WD   -   Wind direction (degrees true)
       WG   -   Wind gust (knots)
       AT   -   Air temperature (degrees farenheit)
       WT   -   Water temperature (degrees farenheit)
       AP   -   Air pressure (millibars)
       SA   -   Salinty (PSU - Practical Salinity Units)
       SG   -   Specific gravity
       RH   -   Relative humidity
       AG   -   Air gap (feet)
       VI   -   Visibility (nautical miles)

       ** NOTE **
       A variable that has its data fields filled with "9"s, indicates that
       data was not collected for that sample period.
       **********


STATION NAME: Quonset Point (8454049)
****************************************************************************************************
    CD       T    TZ    PW     OW    WS   WD   WG    AT    WT    AP    SA    SG     RH    AG   VI
****************************************************************************************************
2019/07/14 21:54 EDT    2.47   2.93    4  300    7  79.3  68.0 1013.4 23.8  1.017 -99.9 -99.99 -9.99
2019/07/14 22:00 EDT    2.34   2.81    5  291    8  79.5  68.2 1013.5 23.8  1.017 -99.9 -99.99 -9.99
2019/07/14 22:06 EDT    2.22   2.66    5  309    9  79.2  68.9 1013.4 23.7  1.017 -99.9 -99.99 -9.99
2019/07/14 22:12 EDT    2.10   2.52    6  313   10  79.0  69.3 1013.5 23.6  1.017 -99.9 -99.99 -9.99
2019/07/14 22:18 EDT    1.98   2.39    7  312   10  79.0  69.4 1013.5 23.5  1.017 -99.9 -99.99 -9.99
2019/07/14 22:24 EDT    1.86   2.27    7  312   12  79.0  70.5 1013.6 23.4  1.016 -99.9 -99.99 -9.99
2019/07/14 22:30 EDT    1.75   2.16    8  316   12  78.8  70.9 1013.6 23.3  1.016 -99.9 -99.99 -9.99
2019/07/14 22:36 EDT    1.63   2.03    9  313   12  78.8  70.7 1013.7 23.4  1.016 -99.9 -99.99 -9.99
2019/07/14 22:42 EDT    1.53   1.91    8  317   11  78.8  71.1 1013.8 23.3  1.016 -99.9 -99.99 -9.99
2019/07/14 22:48 EDT    1.42   1.80   10  317   13  79.0  71.2 1013.8 23.3  1.016 -99.9 -99.99 -9.99
2019/07/14 22:54 EDT    1.33   1.67   11  319   15  78.8  71.6 1013.8 23.2  1.016 -99.9 -99.99 -9.99
2019/07/14 23:00 EDT    1.23   1.55    9  319   13  78.6  72.1 1013.9 23.1  1.016 -99.9 -99.99 -9.99
2019/07/14 23:06 EDT    1.14   1.45   10  319   14  78.4  72.3 1013.9 23.2  1.016 -99.9 -99.99 -9.99
2019/07/14 23:12 EDT    1.06   1.33    9  326   13  78.3  72.5 1014.0 22.9  1.016 -99.9 -99.99 -9.99
2019/07/14 23:18 EDT    0.98   1.25    9  323   13  77.9  72.3 1014.0 23.2  1.016 -99.9 -99.99 -9.99
2019/07/14 23:24 EDT    0.91   1.18    8  325   11  77.7  71.6 1014.1 23.2  1.016 -99.9 -99.99 -9.99
2019/07/14 23:30 EDT    0.84   1.10    9  322   13  77.7  71.2 1014.0 23.3  1.016 -99.9 -99.99 -9.99
2019/07/14 23:36 EDT    0.78   1.05    9  321   11  77.4  71.2 1014.1 23.3  1.016 -99.9 -99.99 -9.99
2019/07/14 23:42 EDT    0.72   0.96    7  326   11  77.2  71.1 1014.2 23.3  1.016 -99.9 -99.99 -9.99
2019/07/14 23:48 EDT    0.67   0.91    7  321    9  77.2  70.7 1014.2 23.3  1.016 -99.9 -99.99 -9.99
2019/07/14 23:54 EDT    0.62   0.88    7  321   10  77.0  70.7 1014.2 23.4  1.016 -99.9 -99.99 -9.99
2019/07/15 00:00 EDT    0.58   0.84    6  321    9  76.8  70.9 1014.3 23.3  1.016 -99.9 -99.99 -9.99
2019/07/15 00:06 EDT    0.54   0.80    6  320    9  76.6  70.9 1014.4 23.3  1.016 -99.9 -99.99 -9.99
2019/07/15 00:12 EDT    0.51   0.76    5  318    7  76.5  70.9 1014.4 23.3  1.016 -99.9 -99.99 -9.99
2019/07/15 00:18 EDT    0.48   0.71    5  318    8  76.3  70.5 1014.4 23.4  1.016 -99.9 -99.99 -9.99
2019/07/15 00:24 EDT    0.46   0.67    5  323    9  76.1  70.5 1014.3 23.4  1.016 -99.9 -99.99 -9.99
2019/07/15 00:30 EDT    0.44   0.65    6  318    9  76.1  70.2 1014.4 23.4  1.017 -99.9 -99.99 -9.99
2019/07/15 00:36 EDT    0.42   0.66    5  316    7  75.7  70.3 1014.5 23.4  1.017 -99.9 -99.99 -9.99
2019/07/15 00:42 EDT    0.41   0.66    6  320    8  75.7  69.8 1014.6 23.5  1.017 -99.9 -99.99 -9.99
2019/07/15 00:48 EDT    0.40   0.65    5  320    7  75.4  69.8 1014.6 23.4  1.017 -99.9 -99.99 -9.99
2019/07/15 00:54 EDT    0.39   0.64    5  316    7  75.2  69.6 1014.6 23.5  1.017 -99.9 -99.99 -9.99
2019/07/15 01:00 EDT    0.39   0.65    4  315    6  75.0  70.5 1014.7 23.4  1.017 -99.9 -99.99 -9.99
2019/07/15 01:06 EDT    0.38   0.67    5  320    6  74.8  71.6 1014.8 23.2  1.016 -99.9 -99.99 -9.99
2019/07/15 01:12 EDT    0.38   0.68    3  331    6  74.5  71.1 1014.7 23.3  1.016 -99.9 -99.99 -9.99
2019/07/15 01:18 EDT    0.39   0.69    3  330    5  74.3  71.1 1014.7 23.3  1.016 -99.9 -99.99 -9.99
2019/07/15 01:24 EDT    0.39   0.72    4  326    5  74.3  71.2 1014.8 23.2  1.016 -99.9 -99.99 -9.99
2019/07/15 01:30 EDT    0.40   0.71    4  321    5  73.9  71.8 1014.9 23.2  1.016 -99.9 -99.99 -9.99
2019/07/15 01:36 EDT    0.40   0.71    3  314    6  73.8  71.8 1015.0 23.2  1.016 -99.9 -99.99 -9.99
2019/07/15 01:42 EDT    0.41   0.74    4  316    5  73.8  72.1 1015.0 23.2  1.016 -99.9 -99.99 -9.99
2019/07/15 01:48 EDT    0.42   0.76    4  316    6  73.6  72.3 1015.1 23.1  1.016 -99.9 -99.99 -9.99
2019/07/15 01:54 EDT    0.43   0.79    4  322    5  73.4  72.3 1015.1 23.1  1.016 -99.9 -99.99 -9.99
2019/07/15 02:00 EDT    0.44   0.82    3  323    5  73.4  72.5 1015.1 23.1  1.016 -99.9 -99.99 -9.99
2019/07/15 02:06 EDT    0.46   0.84    3  311    4  73.2  72.5 1015.2 23.1  1.016 -99.9 -99.99 -9.99
2019/07/15 02:12 EDT    0.47   0.85    3  310    5  73.2  72.7 1015.3 23.1  1.016 -99.9 -99.99 -9.99
2019/07/15 02:18 EDT    0.49   0.88    3  304    5  72.9  72.7 1015.4 23.1  1.016 -99.9 -99.99 -9.99
2019/07/15 02:24 EDT    0.51   0.88    4  318    5  72.7  72.7 1015.4 23.1  1.016 -99.9 -99.99 -9.99
2019/07/15 02:30 EDT    0.53   0.87    5  317    6  72.7  72.7 1015.4 23.1  1.016 -99.9 -99.99 -9.99
2019/07/15 02:36 EDT    0.56   0.88    5  309    8  72.7  72.9 1015.4 23.0  1.016 -99.9 -99.99 -9.99
2019/07/15 02:42 EDT    0.58   0.90    4  311    6  72.5  72.9 1015.3 23.1  1.016 -99.9 -99.99 -9.99
2019/07/15 02:48 EDT    0.61   0.91    3  309    5  72.3  73.0 1015.4 23.0  1.016 -99.9 -99.99 -9.99
2019/07/15 02:54 EDT    0.64   0.93    4  313    6  72.3  73.0 1015.5 23.0  1.016 -99.9 -99.99 -9.99
2019/07/15 03:00 EDT    0.67   0.96    4  313    6  72.1  72.9 1015.5 23.0  1.016 -99.9 -99.99 -9.99
2019/07/15 03:06 EDT    0.71   0.98    3  311    5  72.0  72.9 1015.6 23.0  1.016 -99.9 -99.99 -9.99
2019/07/15 03:12 EDT    0.75   1.03    3  308    4  71.8  72.7 1015.6 23.1  1.016 -99.9 -99.99 -9.99
2019/07/15 03:18 EDT    0.79   1.06    3  314    5  71.8  73.0 1015.6 23.0  1.016 -99.9 -99.99 -9.99
2019/07/15 03:24 EDT    0.83   1.09    4  319    6  71.4  72.9 1015.6 22.5  1.015 -99.9 -99.99 -9.99
2019/07/15 03:30 EDT    0.88   1.13    5  322    6  71.2  73.0 1015.6 23.0  1.016 -99.9 -99.99 -9.99
2019/07/15 03:36 EDT    0.93   1.18    3  321    5  71.1  73.0 1015.7 23.0  1.016 -99.9 -99.99 -9.99
2019/07/15 03:42 EDT    0.99   1.23    3  315    4  71.2  73.2 1015.8 23.0  1.016 -99.9 -99.99 -9.99
2019/07/15 03:48 EDT    1.05   1.28    3  315    4  71.1  72.9 1015.7 23.0  1.016 -99.9 -99.99 -9.99
2019/07/15 03:54 EDT    1.11   1.34    4  325    5  71.2  73.2 1015.6 23.0  1.016 -99.9 -99.99 -9.99
2019/07/15 04:00 EDT    1.18   1.38    4  319    5  71.1  73.2 1015.6 22.9  1.016 -99.9 -99.99 -9.99
2019/07/15 04:06 EDT    1.25   1.41    4  320    6  70.9  73.2 1015.6 22.9  1.016 -99.9 -99.99 -9.99
2019/07/15 04:12 EDT    1.32   1.47    5  321    6  70.7  73.4 1015.8 22.9  1.016 -99.9 -99.99 -9.99
2019/07/15 04:18 EDT    1.40   1.54    5  324    6  70.5  73.6 1015.8 23.0  1.016 -99.9 -99.99 -9.99
2019/07/15 04:24 EDT    1.48   1.64    4  324    6  70.3  73.6 1015.8 23.0  1.016 -99.9 -99.99 -9.99
2019/07/15 04:30 EDT    1.56   1.71    4  316    5  70.2  73.4 1015.9 23.0  1.016 -99.9 -99.99 -9.99
2019/07/15 04:36 EDT    1.65   1.78    4  318    5  70.2  73.2 1016.0 23.0  1.016 -99.9 -99.99 -9.99
2019/07/15 04:42 EDT    1.74   1.87    4  318    5  70.0  73.2 1016.1 23.0  1.016 -99.9 -99.99 -9.99
2019/07/15 04:48 EDT    1.83   1.97    4  317    5  69.8  73.4 1016.2 22.9  1.016 -99.9 -99.99 -9.99
2019/07/15 04:54 EDT    1.92   2.06    4  315    5  69.8  73.4 1016.3 22.9  1.016 -99.9 -99.99 -9.99
2019/07/15 05:00 EDT    2.02   2.15    4  319    6  70.2  73.4 1016.4 22.9  1.016 -99.9 -99.99 -9.99
2019/07/15 05:06 EDT    2.11   2.23    4  334    5  70.5  73.0 1016.5 21.8  1.015 -99.9 -99.99 -9.99
2019/07/15 05:12 EDT    2.21   2.32    4  324    5  70.2  73.2 1016.6 21.8  1.015 -99.9 -99.99 -9.99
2019/07/15 05:18 EDT    2.30   2.42    4  322    5  69.8  73.6 1016.6 21.6  1.015 -99.9 -99.99 -9.99
2019/07/15 05:24 EDT    2.40   2.54    4  319    5  69.6  73.4 1016.7 21.7  1.015 -99.9 -99.99 -9.99
2019/07/15 05:30 EDT    2.50   2.65    4  321    4  69.3  73.4 1016.7 21.6  1.015 -99.9 -99.99 -9.99
2019/07/15 05:36 EDT    2.59   2.74    3  317    4  69.3  73.4 1016.7 21.6  1.015 -99.9 -99.99 -9.99
2019/07/15 05:42 EDT    2.69   2.84    4  317    5  68.7  73.4 1016.7 21.5  1.015 -99.9 -99.99 -9.99
2019/07/15 05:48 EDT    2.78   2.93    4  320    5  68.7  73.4 1016.7 21.6  1.015 -99.9 -99.99 -9.99
2019/07/15 05:54 EDT    2.87   3.03    4  321    5  68.7  73.4 1016.7 21.5  1.015 -99.9 -99.99 -9.99
2019/07/15 06:00 EDT    2.96   3.14    4  321    5  68.4  73.2 1016.7 21.6  1.015 -99.9 -99.99 -9.99
2019/07/15 06:06 EDT    3.05   3.25    4  320    6  68.0  73.4 1016.7 21.7  1.015 -99.9 -99.99 -9.99
2019/07/15 06:12 EDT    3.13   3.34    4  321    6  67.6  73.4 1016.8 21.7  1.015 -99.9 -99.99 -9.99
2019/07/15 06:18 EDT    3.21   3.41    4  316    5  68.0  73.6 1016.8 21.7  1.015 -99.9 -99.99 -9.99
2019/07/15 06:24 EDT    3.29   3.50    4  312    6  68.5  73.6 1016.9 21.6  1.015 -99.9 -99.99 -9.99
2019/07/15 06:30 EDT    3.36   3.57    5  319    7  68.9  73.8 1016.9 21.5  1.015 -99.9 -99.99 -9.99
2019/07/15 06:36 EDT    3.43   3.64    5  316    7  69.3  73.8 1016.9 21.6  1.015 -99.9 -99.99 -9.99
2019/07/15 06:42 EDT    3.49   3.71    4  318    7  70.0  73.6 1017.0 21.6  1.015 -99.9 -99.99 -9.99
2019/07/15 06:48 EDT    3.55   3.79    5  317    7  70.2  73.6 1017.0 21.6  1.015 -99.9 -99.99 -9.99
2019/07/15 06:54 EDT    3.60   3.85    5  313    7  70.3  73.6 1017.0 21.6  1.015 -99.9 -99.99 -9.99
2019/07/15 07:00 EDT    3.65   3.88    5  314    7  70.5  73.8 1017.1 21.5  1.015 -99.9 -99.99 -9.99
2019/07/15 07:06 EDT    3.69   3.94    5  319    6  70.7  73.8 1017.2 21.6  1.015 -99.9 -99.99 -9.99
2019/07/15 07:12 EDT    3.72   3.99    5  312    7  71.1  73.8 1017.3 21.6  1.015 -99.9 -99.99 -9.99
2019/07/15 07:18 EDT    3.75   4.02    5  316    6  71.1  73.8 1017.3 21.6  1.015 -99.9 -99.99 -9.99
2019/07/15 07:24 EDT    3.77   4.03    5  315    8  71.4  73.2 1017.4 21.7  1.015 -99.9 -99.99 -9.99
2019/07/15 07:30 EDT    3.78   4.03    6  317    8  71.4  73.2 1017.3 21.7  1.015 -99.9 -99.99 -9.99
2019/07/15 07:36 EDT    3.79   4.05    7  324    8  71.4  72.9 1017.2 21.8  1.015 -99.9 -99.99 -9.99
2019/07/15 07:42 EDT    3.79   4.03    7  321   10  71.6  72.7 1017.3 21.8  1.015 -99.9 -99.99 -9.99
2019/07/15 07:48 EDT    3.78   4.03    6  322   10  71.8  72.1 1017.3 21.9  1.015 -99.9 -99.99 -9.99
2019/07/15 07:54 EDT    3.77   4.03    5  325    9  72.0  72.1 1017.3 21.9  1.015 -99.9 -99.99 -9.99
2019/07/15 08:00 EDT    3.75   4.01    5  329   10  72.1  72.1 1017.3 22.0  1.015 -99.9 -99.99 -9.99
2019/07/15 08:06 EDT    3.72   3.99    7  329   10  72.0  72.1 1017.3 22.0  1.015 -99.9 -99.99 -9.99
2019/07/15 08:12 EDT    3.69   3.97    7  324    9  72.1  72.1 1017.4 22.0  1.015 -99.9 -99.99 -9.99
2019/07/15 08:18 EDT    3.64   3.93    8  340    9  72.5  72.1 1017.4 22.0  1.015 -99.9 -99.99 -9.99
2019/07/15 08:24 EDT    3.59   3.89    7  338   10  72.5  72.7 1017.4 21.9  1.015 -99.9 -99.99 -9.99
2019/07/15 08:30 EDT    3.54   3.83    7  319   10  72.9  72.3 1017.5 21.9  1.015 -99.9 -99.99 -9.99
2019/07/15 08:36 EDT    3.48   3.76    7  317   11  73.2  71.6 1017.5 21.9  1.015 -99.9 -99.99 -9.99
2019/07/15 08:42 EDT    3.41   3.70    7  332    9  73.6  72.7 1017.5 21.7  1.015 -99.9 -99.99 -9.99
2019/07/15 08:48 EDT    3.33   3.64    5  334   11  73.8  72.5 1017.5 21.7  1.015 -99.9 -99.99 -9.99
2019/07/15 08:54 EDT    3.26   3.54    7  322   10  73.8  70.9 1017.5 22.0  1.015 -99.9 -99.99 -9.99
2019/07/15 09:00 EDT    3.17   3.47    7  324   11  73.9  71.1 1017.5 21.9  1.015 -99.9 -99.99 -9.99
2019/07/15 09:06 EDT    3.08   3.38    7  334   11  73.9  71.4 1017.5 21.9  1.015 -99.9 -99.99 -9.99
2019/07/15 09:12 EDT    2.98   3.29    9  339   12  73.9  71.1 1017.5 21.9  1.015 -99.9 -99.99 -9.99
2019/07/15 09:18 EDT    2.88   3.21    7  331   12  74.3  70.5 1017.5 22.0  1.015 -99.9 -99.99 -9.99
2019/07/15 09:24 EDT    2.78   3.13    6  320   11  74.3  69.8 1017.5 22.1  1.016 -99.9 -99.99 -9.99
2019/07/15 09:30 EDT    2.67   3.05    6  316    9  74.7  70.2 1017.4 22.1  1.016 -99.9 -99.99 -9.99
2019/07/15 09:36 EDT    2.57   2.93    8  336   11  74.3  71.4 1017.3 21.8  1.015 -99.9 -99.99 -9.99
2019/07/15 09:42 EDT    2.45   2.84    8  347   14  74.8  71.2 1017.2 21.8  1.015 -99.9 -99.99 -9.99
2019/07/15 09:48 EDT    2.34   2.73    8  344   13  74.8  71.8 1017.2 21.7  1.015 -99.9 -99.99 -9.99
2019/07/15 09:54 EDT    2.23   2.60    6  349   12  74.7  71.2 1017.2 21.8  1.015 -99.9 -99.99 -9.99
2019/07/15 10:00 EDT    2.11   2.51    4  300    9  75.6  70.2 1017.4 22.0  1.016 -99.9 -99.99 -9.99
2019/07/15 10:06 EDT    1.99   2.41    5  308   11  75.4  70.0 1017.4 21.9  1.015 -99.9 -99.99 -9.99
2019/07/15 10:12 EDT    1.88   2.25    6  291   11  74.8  69.4 1017.4 22.1  1.016 -99.9 -99.99 -9.99
2019/07/15 10:18 EDT    1.76   2.14    5  311   10  75.2  69.6 1017.4 22.1  1.016 -99.9 -99.99 -9.99
2019/07/15 10:24 EDT    1.65   2.01    8  313   13  75.4  69.6 1017.4 22.2  1.016 -99.9 -99.99 -9.99
2019/07/15 10:30 EDT    1.54   1.89    8  342    9  74.7  70.5 1017.4 22.0  1.015 -99.9 -99.99 -9.99
2019/07/15 10:36 EDT    1.43   1.79    5  318   11  75.0  70.7 1017.4 22.0  1.015 -99.9 -99.99 -9.99
2019/07/15 10:42 EDT    1.33   1.70    3  310    7  75.0  70.7 1017.4 22.1  1.015 -99.9 -99.99 -9.99
2019/07/15 10:48 EDT    1.23   1.60    7  282   11  75.4  70.7 1017.4 22.1  1.015 -99.9 -99.99 -9.99
2019/07/15 10:54 EDT    1.13   1.50    7  264   12  74.8  72.7 1017.3 21.8  1.015 -99.9 -99.99 -9.99
2019/07/15 11:00 EDT    1.03   1.39    6  301   10  76.1  72.7 1017.3 21.8  1.015 -99.9 -99.99 -9.99
2019/07/15 11:06 EDT    0.95   1.27    4  317    8  75.9  73.0 1017.3 21.8  1.015 -99.9 -99.99 -9.99
2019/07/15 11:12 EDT    0.86   1.17    5  306   10  76.1  73.6 1017.3 21.6  1.015 -99.9 -99.99 -9.99
2019/07/15 11:18 EDT    0.78   1.06    6  329    9  75.6  73.8 1017.2 21.6  1.015 -99.9 -99.99 -9.99
2019/07/15 11:24 EDT    0.71   0.97    6   11    9  75.4  73.8 1017.2 21.6  1.015 -99.9 -99.99 -9.99
2019/07/15 11:30 EDT    0.65   0.91    6  268    9  76.6  73.9 1017.2 21.6  1.015 -99.9 -99.99 -9.99
2019/07/15 11:36 EDT    0.59   0.81    5  298   10  76.6  74.1 1017.2 21.6  1.015 -99.9 -99.99 -9.99
2019/07/15 11:42 EDT    0.53   0.72    6  296   10  77.2  74.3 1017.2 21.6  1.015 -99.9 -99.99 -9.99
2019/07/15 11:48 EDT    0.48   0.64    6  257   11  75.7  74.3 1017.2 21.5  1.015 -99.9 -99.99 -9.99
2019/07/15 11:54 EDT    0.44   0.59    7  231   12  75.4  74.3 1017.0 21.6  1.015 -99.9 -99.99 -9.99
2019/07/15 12:00 EDT    0.41   0.54    8  249   10  75.7  74.3 1017.0 21.5  1.015 -99.9 -99.99 -9.99
2019/07/15 12:06 EDT    0.38   0.47    8  267   12  77.0  74.5 1017.0 21.5  1.015 -99.9 -99.99 -9.99
2019/07/15 12:12 EDT    0.35   0.45    2  279    9  77.9  74.5 1017.0 21.5  1.015 -99.9 -99.99 -9.99
2019/07/15 12:18 EDT    0.33   0.41    5  241    7  76.6  74.5 1016.9 21.5  1.015 -99.9 -99.99 -9.99
2019/07/15 12:24 EDT    0.32   0.36    5  248   11  77.2  74.3 1016.9 21.6  1.015 -99.9 -99.99 -9.99
2019/07/15 12:30 EDT    0.31   0.31    7  242   11  76.5  74.5 1016.8 21.6  1.015 -99.9 -99.99 -9.99
2019/07/15 12:36 EDT    0.31   0.30   11  258   13  77.0  74.3 1016.8 21.6  1.015 -99.9 -99.99 -9.99
2019/07/15 12:42 EDT    0.31   0.29    9  253   12  77.2  74.5 1016.8 21.6  1.015 -99.9 -99.99 -9.99
2019/07/15 12:48 EDT    0.32   0.28   10  241   11  76.8  74.7 1016.7 21.6  1.015 -99.9 -99.99 -9.99
2019/07/15 12:54 EDT    0.33   0.30    8  239   10  77.2  74.8 1016.7 21.6  1.014 -99.9 -99.99 -9.99
2019/07/15 13:00 EDT    0.35   0.31    9  251   11  77.5  74.7 1016.6 21.6  1.015 -99.9 -99.99 -9.99
2019/07/15 13:06 EDT    0.36   0.31    8  246   11  77.9  74.7 1016.6 21.6  1.015 -99.9 -99.99 -9.99
2019/07/15 13:12 EDT    0.38   0.33    6  259    8  77.9  74.8 1016.6 21.6  1.015 -99.9 -99.99 -9.99
2019/07/15 13:18 EDT    0.41   0.38    7  325   11  79.2  74.8 1016.5 21.6  1.015 -99.9 -99.99 -9.99
2019/07/15 13:24 EDT    0.43   0.41    7  255   10  78.3  74.8 1016.5 21.6  1.015 -99.9 -99.99 -9.99
2019/07/15 13:30 EDT    0.46   0.44    3  302   11  79.5  74.8 1016.5 21.6  1.015 -99.9 -99.99 -9.99
2019/07/15 13:36 EDT    0.49   0.48    5  276   10  79.7  75.0 1016.5 21.6  1.014 -99.9 -99.99 -9.99
2019/07/15 13:42 EDT    0.52   0.52    6  257    9  79.3  75.0 1016.5 21.6  1.014 -99.9 -99.99 -9.99
2019/07/15 13:48 EDT    0.56   0.56    5  350    8  79.9  75.0 1016.4 21.6  1.014 -99.9 -99.99 -9.99
2019/07/15 13:54 EDT    0.59   0.58    5  314    9  80.2  74.8 1016.4 21.6  1.015 -99.9 -99.99 -9.99
2019/07/15 14:00 EDT    0.63   0.63 -999 -999 -999 -99.9 -99.9 -999.9 -9.9 -9.999 -99.9 -99.99 -9.99
2019/07/15 14:06 EDT    0.66   0.69    5  323    9  79.9  74.8 1016.2 21.7  1.015 -99.9 -99.99 -9.99
2019/07/15 14:12 EDT    0.70   0.73    4  348    5  80.2  74.5 1016.1 21.7  1.015 -99.9 -99.99 -9.99
2019/07/15 14:18 EDT    0.74   0.74    7  244    9  79.3  74.3 1016.0 21.7  1.015 -99.9 -99.99 -9.99
2019/07/15 14:24 EDT    0.77   0.81    8  241   10  79.5  74.7 1016.1 21.7  1.015 -99.9 -99.99 -9.99
2019/07/15 14:30 EDT    0.81   0.88    4  294    9  81.3  75.0 1016.1 21.7  1.015 -99.9 -99.99 -9.99
2019/07/15 14:36 EDT    0.85   0.91    5  306    7  81.1  75.0 1016.0 21.7  1.015 -99.9 -99.99 -9.99
2019/07/15 14:42 EDT    0.89   0.99    4  213    5  80.8  75.0 1015.9 21.7  1.015 -99.9 -99.99 -9.99
2019/07/15 14:48 EDT    0.93   1.06    6  262    9  80.6  75.2 1015.9 21.6  1.014 -99.9 -99.99 -9.99
2019/07/15 14:54 EDT    0.98   1.11    3  239    8  80.6  75.2 1015.8 21.6  1.014 -99.9 -99.99 -9.99
2019/07/15 15:00 EDT    1.02   1.17    8  303   11  81.9  75.2 1015.8 21.6  1.014 -99.9 -99.99 -9.99
2019/07/15 15:06 EDT    1.06   1.23    9  330   11  81.3  75.0 1015.8 21.6  1.014 -99.9 -99.99 -9.99
2019/07/15 15:12 EDT    1.11   1.32    5  301   10  82.4  75.0 1015.8 21.6  1.014 -99.9 -99.99 -9.99
2019/07/15 15:18 EDT    1.16   1.39    3  276    8  82.6  75.2 1015.7 21.6  1.014 -99.9 -99.99 -9.99
2019/07/15 15:24 EDT    1.21   1.46    4  294    7  82.0  75.2 1015.7 21.6  1.014 -99.9 -99.99 -9.99
2019/07/15 15:30 EDT    1.26   1.51    7  289   10  82.8  75.0 1015.7 21.6  1.014 -99.9 -99.99 -9.99
2019/07/15 15:36 EDT    1.31   1.55    6  266   11  81.7  75.0 1015.7 21.6  1.014 -99.9 -99.99 -9.99
2019/07/15 15:42 EDT    1.37 -99.99 -999 -999 -999 -99.9 -99.9 -999.9 -9.9 -9.999 -99.9 -99.99 -9.99
2019/07/15 15:48 EDT    1.43 -99.99 -999 -999 -999 -99.9 -99.9 -999.9 -9.9 -9.999 -99.9 -99.99 -9.99
2019/07/15 15:54 EDT    1.49 -99.99 -999 -999 -999 -99.9 -99.9 -999.9 -9.9 -9.999 -99.9 -99.99 -9.99
2019/07/15 16:00 EDT    1.55 -99.99 -999 -999 -999 -99.9 -99.9 -999.9 -9.9 -9.999 -99.9 -99.99 -9.99
2019/07/15 16:06 EDT    1.62 -99.99 -999 -999 -999 -99.9 -99.9 -999.9 -9.9 -9.999 -99.9 -99.99 -9.99
2019/07/15 16:12 EDT    1.69 -99.99 -999 -999 -999 -99.9 -99.9 -999.9 -9.9 -9.999 -99.9 -99.99 -9.99
2019/07/15 16:18 EDT    1.76 -99.99 -999 -999 -999 -99.9 -99.9 -999.9 -9.9 -9.999 -99.9 -99.99 -9.99
2019/07/15 16:24 EDT    1.83 -99.99 -999 -999 -999 -99.9 -99.9 -999.9 -9.9 -9.999 -99.9 -99.99 -9.99
2019/07/15 16:30 EDT    1.91 -99.99 -999 -999 -999 -99.9 -99.9 -999.9 -9.9 -9.999 -99.9 -99.99 -9.99
2019/07/15 16:36 EDT    1.99 -99.99 -999 -999 -999 -99.9 -99.9 -999.9 -9.9 -9.999 -99.9 -99.99 -9.99
2019/07/15 16:42 EDT    2.08 -99.99 -999 -999 -999 -99.9 -99.9 -999.9 -9.9 -9.999 -99.9 -99.99 -9.99
2019/07/15 16:48 EDT    2.16 -99.99 -999 -999 -999 -99.9 -99.9 -999.9 -9.9 -9.999 -99.9 -99.99 -9.99
2019/07/15 16:54 EDT    2.25 -99.99 -999 -999 -999 -99.9 -99.9 -999.9 -9.9 -9.999 -99.9 -99.99 -9.99
2019/07/15 17:00 EDT    2.34 -99.99 -999 -999 -999 -99.9 -99.9 -999.9 -9.9 -9.999 -99.9 -99.99 -9.99
2019/07/15 17:06 EDT    2.44 -99.99 -999 -999 -999 -99.9 -99.9 -999.9 -9.9 -9.999 -99.9 -99.99 -9.99
2019/07/15 17:12 EDT    2.53 -99.99 -999 -999 -999 -99.9 -99.9 -999.9 -9.9 -9.999 -99.9 -99.99 -9.99
2019/07/15 17:18 EDT    2.63 -99.99 -999 -999 -999 -99.9 -99.9 -999.9 -9.9 -9.999 -99.9 -99.99 -9.99
2019/07/15 17:24 EDT    2.72 -99.99 -999 -999 -999 -99.9 -99.9 -999.9 -9.9 -9.999 -99.9 -99.99 -9.99
2019/07/15 17:30 EDT    2.82 -99.99 -999 -999 -999 -99.9 -99.9 -999.9 -9.9 -9.999 -99.9 -99.99 -9.99
2019/07/15 17:36 EDT    2.92 -99.99 -999 -999 -999 -99.9 -99.9 -999.9 -9.9 -9.999 -99.9 -99.99 -9.99
2019/07/15 17:42 EDT    3.02 -99.99 -999 -999 -999 -99.9 -99.9 -999.9 -9.9 -9.999 -99.9 -99.99 -9.99
2019/07/15 17:48 EDT    3.12 -99.99 -999 -999 -999 -99.9 -99.9 -999.9 -9.9 -9.999 -99.9 -99.99 -9.99
2019/07/15 17:54 EDT    3.22 -99.99 -999 -999 -999 -99.9 -99.9 -999.9 -9.9 -9.999 -99.9 -99.99 -9.99
2019/07/15 18:00 EDT    3.32 -99.99 -999 -999 -999 -99.9 -99.9 -999.9 -9.9 -9.999 -99.9 -99.99 -9.99
2019/07/15 18:06 EDT    3.42 -99.99 -999 -999 -999 -99.9 -99.9 -999.9 -9.9 -9.999 -99.9 -99.99 -9.99
2019/07/15 18:12 EDT    3.51 -99.99 -999 -999 -999 -99.9 -99.9 -999.9 -9.9 -9.999 -99.9 -99.99 -9.99
2019/07/15 18:18 EDT    3.60 -99.99 -999 -999 -999 -99.9 -99.9 -999.9 -9.9 -9.999 -99.9 -99.99 -9.99
2019/07/15 18:24 EDT    3.70 -99.99 -999 -999 -999 -99.9 -99.9 -999.9 -9.9 -9.999 -99.9 -99.99 -9.99
2019/07/15 18:30 EDT    3.78 -99.99 -999 -999 -999 -99.9 -99.9 -999.9 -9.9 -9.999 -99.9 -99.99 -9.99
2019/07/15 18:36 EDT    3.87 -99.99 -999 -999 -999 -99.9 -99.9 -999.9 -9.9 -9.999 -99.9 -99.99 -9.99
2019/07/15 18:42 EDT    3.95 -99.99 -999 -999 -999 -99.9 -99.9 -999.9 -9.9 -9.999 -99.9 -99.99 -9.99
2019/07/15 18:48 EDT    4.03 -99.99 -999 -999 -999 -99.9 -99.9 -999.9 -9.9 -9.999 -99.9 -99.99 -9.99
2019/07/15 18:54 EDT    4.10 -99.99 -999 -999 -999 -99.9 -99.9 -999.9 -9.9 -9.999 -99.9 -99.99 -9.99
2019/07/15 19:00 EDT    4.17 -99.99 -999 -999 -999 -99.9 -99.9 -999.9 -9.9 -9.999 -99.9 -99.99 -9.99
2019/07/15 19:06 EDT    4.23 -99.99 -999 -999 -999 -99.9 -99.9 -999.9 -9.9 -9.999 -99.9 -99.99 -9.99
2019/07/15 19:12 EDT    4.29 -99.99 -999 -999 -999 -99.9 -99.9 -999.9 -9.9 -9.999 -99.9 -99.99 -9.99
2019/07/15 19:18 EDT    4.35 -99.99 -999 -999 -999 -99.9 -99.9 -999.9 -9.9 -9.999 -99.9 -99.99 -9.99
2019/07/15 19:24 EDT    4.39 -99.99 -999 -999 -999 -99.9 -99.9 -999.9 -9.9 -9.999 -99.9 -99.99 -9.99
2019/07/15 19:30 EDT    4.44 -99.99 -999 -999 -999 -99.9 -99.9 -999.9 -9.9 -9.999 -99.9 -99.99 -9.99
2019/07/15 19:36 EDT    4.47 -99.99 -999 -999 -999 -99.9 -99.9 -999.9 -9.9 -9.999 -99.9 -99.99 -9.99
2019/07/15 19:42 EDT    4.50 -99.99 -999 -999 -999 -99.9 -99.9 -999.9 -9.9 -9.999 -99.9 -99.99 -9.99
2019/07/15 19:48 EDT    4.52 -99.99 -999 -999 -999 -99.9 -99.9 -999.9 -9.9 -9.999 -99.9 -99.99 -9.99
2019/07/15 19:54 EDT    4.54 -99.99 -999 -999 -999 -99.9 -99.9 -999.9 -9.9 -9.999 -99.9 -99.99 -9.99
2019/07/15 20:00 EDT    4.54 -99.99 -999 -999 -999 -99.9 -99.9 -999.9 -9.9 -9.999 -99.9 -99.99 -9.99
2019/07/15 20:06 EDT    4.54 -99.99 -999 -999 -999 -99.9 -99.9 -999.9 -9.9 -9.999 -99.9 -99.99 -9.99
2019/07/15 20:12 EDT    4.54 -99.99 -999 -999 -999 -99.9 -99.9 -999.9 -9.9 -9.999 -99.9 -99.99 -9.99
2019/07/15 20:18 EDT    4.52 -99.99 -999 -999 -999 -99.9 -99.9 -999.9 -9.9 -9.999 -99.9 -99.99 -9.99
2019/07/15 20:24 EDT    4.50 -99.99 -999 -999 -999 -99.9 -99.9 -999.9 -9.9 -9.999 -99.9 -99.99 -9.99
2019/07/15 20:30 EDT    4.47 -99.99 -999 -999 -999 -99.9 -99.9 -999.9 -9.9 -9.999 -99.9 -99.99 -9.99
2019/07/15 20:36 EDT    4.44 -99.99 -999 -999 -999 -99.9 -99.9 -999.9 -9.9 -9.999 -99.9 -99.99 -9.99
2019/07/15 20:42 EDT    4.39 -99.99 -999 -999 -999 -99.9 -99.9 -999.9 -9.9 -9.999 -99.9 -99.99 -9.99
2019/07/15 20:48 EDT    4.34 -99.99 -999 -999 -999 -99.9 -99.9 -999.9 -9.9 -9.999 -99.9 -99.99 -9.99
2019/07/15 20:54 EDT    4.29 -99.99 -999 -999 -999 -99.9 -99.9 -999.9 -9.9 -9.999 -99.9 -99.99 -9.99
2019/07/15 21:00 EDT    4.22 -99.99 -999 -999 -999 -99.9 -99.9 -999.9 -9.9 -9.999 -99.9 -99.99 -9.99
2019/07/15 21:06 EDT    4.15 -99.99 -999 -999 -999 -99.9 -99.9 -999.9 -9.9 -9.999 -99.9 -99.99 -9.99
2019/07/15 21:12 EDT    4.07 -99.99 -999 -999 -999 -99.9 -99.9 -999.9 -9.9 -9.999 -99.9 -99.99 -9.99
2019/07/15 21:18 EDT    3.99 -99.99 -999 -999 -999 -99.9 -99.9 -999.9 -9.9 -9.999 -99.9 -99.99 -9.99
2019/07/15 21:24 EDT    3.90 -99.99 -999 -999 -999 -99.9 -99.9 -999.9 -9.9 -9.999 -99.9 -99.99 -9.99
2019/07/15 21:30 EDT    3.80 -99.99 -999 -999 -999 -99.9 -99.9 -999.9 -9.9 -9.999 -99.9 -99.99 -9.99
2019/07/15 21:36 EDT    3.70 -99.99 -999 -999 -999 -99.9 -99.9 -999.9 -9.9 -9.999 -99.9 -99.99 -9.99
2019/07/15 21:42 EDT    3.60 -99.99 -999 -999 -999 -99.9 -99.9 -999.9 -9.9 -9.999 -99.9 -99.99 -9.99
2019/07/15 21:48 EDT    3.49 -99.99 -999 -999 -999 -99.9 -99.9 -999.9 -9.9 -9.999 -99.9 -99.99 -9.99
2019/07/15 21:54 EDT    3.37 -99.99 -999 -999 -999 -99.9 -99.9 -999.9 -9.9 -9.999 -99.9 -99.99 -9.99

Revised: 08/08/2018
NOAA / National Ocean Service
Web site owner: Center for Operational Oceanographic Products and Services